LEGE

Girona Airport

Girona, Spain
TAF LEGE 182300Z 1900/1924 VRB04KT 7000 FEW020 TX14/1912Z TNM01/1906Z TEMPO 1900/1910 2000 BR BKN008 PROB40 TEMPO 1900/1909 0500 BCFG VV002 BECMG 1911/1913 19008KT
Issued Valid From Valid To
Jan-18 @ 23:00 UTC
(4 hours ago)
Jan-19 @ 00:00 UTC
(3 hours ago)
Jan-20 @ 00:00 UTC
(in 21 hours)
Jan-19 @ 00:00 to Jan-19 @ 11:00
TAF LEGE 182300Z 1900/1924 VRB04KT 7000 FEW020 TX14/1912Z TNM01/1906Z
Wind Visibility Clouds
Variable at 4 knots 7,001 meters
  • Few at 2,000' AGL
Temporary  (Probability 40%) Jan-19 @ 00:00 to Jan-19 @ 09:00
PROB40 TEMPO 1900/1909 0500 BCFG VV002
Visibility Clouds Conditions
499 meters
  • Vertical visibility at 200' AGL
  • Patches of
  • Fog
Temporary Jan-19 @ 00:00 to Jan-19 @ 10:00
TEMPO 1900/1910 2000 BR BKN008
Visibility Clouds Conditions
1,996 meters
  • Broken at 800' AGL
  • Mist
Becoming Jan-19 @ 11:00 to Jan-20 @ 00:00
BECMG 1911/1913 19008KT
Wind Visibility Clouds
190° at 8 knots 7,001 meters
  • Few at 2,000' AGL
TAF LEGE 182300Z 1900/1924 VRB04KT 7000 FEW020 TX14/1912Z TNM01/1906Z TEMPO 1900/1910 2000 BR BKN008 PROB40 TEMPO 1900/1909 0500 BCFG VV002 BECMG 1911/1913 19008KT
Issued Jan-18 @ 23:00 UTC
(4 hours ago)
Valid From Jan-19 @ 00:00 UTC
(3 hours ago)
Valid To Jan-20 @ 00:00 UTC
(in 21 hours)
Jan-19 @ 00:00 - Jan-19 @ 11:00
Wind Visibility
Variable at 4 knots 7,001 meters
Clouds
  • Few at 2,000' AGL
Probability 40% Temporary Jan-19 @ 00:00 - Jan-19 @ 09:00
Clouds
  • Vertical visibility at 200' AGL
Conditions
  • Patches of
  • Fog
Temporary Jan-19 @ 00:00 - Jan-19 @ 10:00
Clouds
  • Broken at 800' AGL
Conditions
  • Mist
Becoming Jan-19 @ 11:00 - Jan-20 @ 00:00
Wind Visibility
190° at 8 knots 7,001 meters
Clouds
  • Few at 2,000' AGL